Time;durP1;ratioP1;P1;durP2;ratioP2;P2;SDS_P1;SDS_P2;PMS_P1;PMS_P2;Temp;Humidity;BMP_temperature;BMP_pressure;BME280_temperature;BME280_humidity;BME280_pressure;Samples;Min_cycle;Max_cycle;Signal;HPM_P1;HPM_P2
2022/03/10 17:09:15;;;;;;;17.10;9.48;;;8.60;56.60;;;;;;5072498;28;20523;-79
2022/03/10 17:11:40;;;;;;;15.60;8.85;;;8.60;56.40;;;;;;5070388;28;20181;-79
2022/03/10 17:14:10;;;;;;;16.38;9.13;;;8.50;56.90;;;;;;5070486;28;20233;-80
2022/03/10 17:16:36;;;;;;;12.32;8.23;;;8.50;56.90;;;;;;5071607;28;20162;-80
2022/03/10 17:19:04;;;;;;;28.98;16.88;;;8.50;56.90;;;;;;5070570;28;20181;-80
2022/03/10 17:21:30;;;;;;;18.63;10.70;;;8.50;57.20;;;;;;5069702;28;20173;-78
2022/03/10 17:23:56;;;;;;;16.58;9.75;;;8.50;57.50;;;;;;5069553;28;20287;-78
2022/03/10 17:27:03;;;;;;;16.40;9.48;;;8.40;57.70;;;;;;5069404;28;20196;-78
2022/03/10 17:29:30;;;;;;;14.50;9.60;;;8.30;58.30;;;;;;5070348;28;20227;-77
2022/03/10 17:32:20;;;;;;;16.42;10.32;;;8.10;58.90;;;;;;5070513;28;20212;-79
2022/03/10 17:34:51;;;;;;;19.45;9.80;;;8.00;59.50;;;;;;5070123;28;20286;-79
2022/03/10 17:37:17;;;;;;;16.83;10.25;;;7.90;59.50;;;;;;5071217;28;20272;-79
2022/03/10 17:39:43;;;;;;;18.30;12.20;;;7.80;59.60;;;;;;5070628;28;20173;-81
2022/03/10 17:42:19;;;;;;;15.68;10.60;;;7.80;59.40;;;;;;5070233;28;20178;-81
2022/03/10 17:44:44;;;;;;;13.95;8.90;;;7.70;59.00;;;;;;5070213;28;20201;-80
2022/03/10 17:47:10;;;;;;;16.10;11.15;;;7.70;58.50;;;;;;5071136;28;20297;-81
2022/03/10 17:49:37;;;;;;;13.30;9.23;;;7.60;58.10;;;;;;5068945;28;20170;-83
2022/03/10 17:52:03;;;;;;;10.18;6.93;;;7.50;58.10;;;;;;5070052;28;20200;-81
2022/03/10 17:54:52;;;;;;;8.52;7.20;;;7.40;57.10;;;;;;5069741;28;20202;-80
2022/03/10 17:57:25;;;;;;;8.90;5.93;;;7.40;56.90;;;;;;5068696;28;20257;-81
2022/03/10 18:00:11;;;;;;;10.13;6.47;;;7.50;56.60;;;;;;5068778;28;20174;-81
2022/03/10 18:02:50;;;;;;;8.75;5.72;;;7.40;56.90;;;;;;5069030;28;20706;-81
2022/03/10 18:06:03;;;;;;;9.63;5.22;;;7.40;56.30;;;;;;5068585;28;20729;-82
2022/03/10 18:08:29;;;;;;;8.45;6.05;;;7.40;56.00;;;;;;5068195;28;20197;-82
2022/03/10 18:11:19;;;;;;;12.43;6.25;;;7.40;55.90;;;;;;5069976;28;20174;-81
2022/03/10 18:13:51;;;;;;;12.05;8.13;;;7.50;55.60;;;;;;5068298;28;20272;-80
2022/03/10 18:16:16;;;;;;;10.07;6.75;;;7.60;55.50;;;;;;5068155;28;20265;-80
2022/03/10 18:18:50;;;;;;;10.45;7.50;;;7.60;55.40;;;;;;5065123;28;20294;-81
2022/03/10 18:21:18;;;;;;;13.90;8.52;;;7.60;55.80;;;;;;5056079;28;20188;-82
2022/03/10 18:23:46;;;;;;;9.30;6.70;;;7.50;55.80;;;;;;5055192;28;20190;-82
2022/03/10 18:26:20;;;;;;;9.43;6.88;;;7.40;56.10;;;;;;5055752;28;20198;-82
2022/03/10 18:28:50;;;;;;;7.85;5.97;;;7.40;56.10;;;;;;5055388;28;20209;-81
2022/03/10 18:31:17;;;;;;;9.52;6.15;;;7.40;56.30;;;;;;5054848;28;20174;-81
2022/03/10 18:33:44;;;;;;;8.45;5.97;;;7.40;56.40;;;;;;5052576;28;20210;-80
2022/03/10 18:36:13;;;;;;;10.18;6.43;;;7.40;56.70;;;;;;5054860;28;20179;-81
2022/03/10 18:39:18;;;;;;;10.93;6.32;;;7.50;56.60;;;;;;5055927;28;20210;-81
2022/03/10 18:41:48;;;;;;;9.30;6.25;;;7.50;56.60;;;;;;5056028;28;20170;-81
2022/03/10 18:44:15;;;;;;;8.20;6.20;;;7.60;56.40;;;;;;5055530;28;20684;-80
2022/03/10 18:46:46;;;;;;;11.40;6.18;;;7.50;56.80;;;;;;5055247;28;20237;-80
2022/03/10 18:49:39;;;;;;;10.10;6.28;;;7.50;56.50;;;;;;5054647;28;20212;-81
2022/03/10 18:52:55;;;;;;;10.27;5.75;;;7.60;56.70;;;;;;5054835;28;20177;-80
2022/03/10 18:55:49;;;;;;;10.70;6.13;;;7.50;57.00;;;;;;5055529;28;20248;-80
2022/03/10 18:58:19;;;;;;;8.68;6.28;;;7.50;57.10;;;;;;5054768;28;20676;-80
2022/03/10 19:00:48;;;;;;;8.50;6.18;;;7.40;57.00;;;;;;5054327;28;20231;-80
2022/03/10 19:03:14;;;;;;;10.68;6.07;;;7.40;57.00;;;;;;5055684;28;20212;-80
2022/03/10 19:05:40;;;;;;;8.68;5.63;;;7.50;56.90;;;;;;5054522;28;20181;-80
2022/03/10 19:08:07;;;;;;;11.93;6.90;;;7.70;56.50;;;;;;5055543;28;20273;-80
2022/03/10 19:10:34;;;;;;;14.48;6.65;;;7.70;56.40;;;;;;5054459;28;20228;-78
2022/03/10 19:13:25;;;;;;;8.63;6.35;;;7.70;56.50;;;;;;5054208;28;20185;-78
2022/03/10 19:19:13;;;;;;;9.25;6.38;;;7.50;57.30;;;;;;5055125;28;20200;-78
2022/03/10 19:21:39;;;;;;;10.85;6.55;;;7.30;57.80;;;;;;5054878;28;20174;-78
2022/03/10 19:24:05;;;;;;;11.35;6.43;;;7.30;57.80;;;;;;5054511;28;20251;-78
2022/03/10 19:26:33;;;;;;;10.13;6.60;;;7.30;58.00;;;;;;5053810;28;20273;-78
2022/03/10 19:29:19;;;;;;;10.68;7.00;;;7.20;58.20;;;;;;5053682;28;20170;-77
2022/03/10 19:31:45;;;;;;;10.55;6.97;;;7.10;58.90;;;;;;5053867;28;20155;-77
2022/03/10 19:34:11;;;;;;;11.13;7.78;;;7.00;59.20;;;;;;5054653;28;20241;-77
2022/03/10 19:39:58;;;;;;;9.57;7.22;;;7.00;59.10;;;;;;5054865;28;20209;-78
2022/03/10 19:42:57;;;;;;;12.23;7.60;;;7.00;59.00;;;;;;5053764;28;20551;-78
2022/03/10 19:45:25;;;;;;;11.48;7.15;;;7.10;58.60;;;;;;5053355;28;20175;-78
2022/03/10 19:51:32;;;;;;;11.65;7.10;;;7.10;58.80;;;;;;5054754;28;20182;-78
2022/03/10 19:53:58;;;;;;;9.90;6.47;;;7.10;58.70;;;;;;5054494;28;20193;-78
2022/03/10 19:56:38;;;;;;;14.20;7.28;;;7.10;58.80;;;;;;5054657;28;20181;-78
2022/03/10 19:59:06;;;;;;;20.50;7.47;;;7.00;59.10;;;;;;5054522;28;20186;-78
2022/03/10 20:01:35;;;;;;;12.35;7.43;;;6.90;59.30;;;;;;5053305;28;20186;-78
2022/03/10 20:04:03;;;;;;;11.32;8.00;;;6.90;59.50;;;;;;5054048;28;20190;-78
2022/03/10 20:06:28;;;;;;;13.13;7.63;;;6.90;59.70;;;;;;5052916;28;20171;-78
2022/03/10 20:08:54;;;;;;;13.70;8.02;;;6.90;59.70;;;;;;5053326;28;20259;-78
2022/03/10 20:11:20;;;;;;;11.25;8.15;;;6.80;60.10;;;;;;5054106;28;20174;-79
2022/03/10 20:13:47;;;;;;;13.75;9.30;;;6.70;60.30;;;;;;5053068;28;20198;-78
2022/03/10 20:16:22;;;;;;;14.30;7.82;;;6.70;61.00;;;;;;5053944;28;20178;-78
2022/03/10 20:18:48;;;;;;;15.65;8.02;;;6.80;60.40;;;;;;5052763;28;20206;-78
2022/03/10 20:21:16;;;;;;;12.80;8.00;;;6.80;60.80;;;;;;5053018;28;20196;-78
2022/03/10 20:23:41;;;;;;;12.77;8.30;;;6.90;60.00;;;;;;5053757;28;20186;-78
2022/03/10 20:26:09;;;;;;;11.73;7.72;;;6.90;60.00;;;;;;5052780;28;20174;-78
2022/03/10 20:28:36;;;;;;;12.65;8.57;;;6.80;60.20;;;;;;5053834;28;20259;-78
2022/03/10 20:31:05;;;;;;;11.60;8.07;;;6.80;60.30;;;;;;5053275;28;20252;-78
2022/03/10 20:33:44;;;;;;;16.23;11.40;;;6.70;60.70;;;;;;5052704;28;20221;-78
2022/03/10 20:36:10;;;;;;;14.43;10.20;;;6.60;61.40;;;;;;5053701;28;20162;-78
2022/03/10 20:38:36;;;;;;;15.00;8.80;;;6.50;61.50;;;;;;5052285;28;20194;-78
2022/03/10 20:41:02;;;;;;;19.52;10.15;;;6.50;61.80;;;;;;5052369;28;20256;-78
2022/03/10 20:43:29;;;;;;;20.73;13.53;;;6.50;61.90;;;;;;5052023;28;20205;-78
2022/03/10 20:46:11;;;;;;;39.65;23.58;;;6.40;62.00;;;;;;5052295;28;20209;-78
2022/03/10 20:48:37;;;;;;;26.45;15.93;;;6.30;62.60;;;;;;5053818;28;20162;-78
2022/03/10 20:51:03;;;;;;;22.80;15.60;;;6.20;63.00;;;;;;5052279;28;20223;-78
2022/03/10 20:53:28;;;;;;;53.87;33.37;;;6.10;63.40;;;;;;5052218;28;20194;-78
2022/03/10 20:55:54;;;;;;;45.43;29.00;;;5.90;64.00;;;;;;5053616;28;20206;-78
2022/03/10 20:58:21;;;;;;;25.57;15.50;;;5.80;64.40;;;;;;5052126;28;20214;-78
2022/03/10 21:00:47;;;;;;;18.70;13.07;;;5.70;64.80;;;;;;5053049;28;20256;-78
2022/03/10 21:03:13;;;;;;;32.37;19.90;;;5.50;65.00;;;;;;5052080;28;20609;-78
2022/03/10 21:05:38;;;;;;;28.90;21.23;;;5.40;65.50;;;;;;5052258;28;20228;-78
2022/03/10 21:08:04;;;;;;;62.87;43.03;;;5.30;65.80;;;;;;5053323;28;20217;-78
2022/03/10 21:10:30;;;;;;;36.97;26.17;;;5.30;66.30;;;;;;5052263;28;20178;-78
2022/03/10 21:12:56;;;;;;;20.43;13.00;;;5.20;66.40;;;;;;5052104;28;20637;-78
2022/03/10 21:15:21;;;;;;;20.50;12.13;;;5.10;66.70;;;;;;5052186;28;20189;-78
2022/03/10 21:17:47;;;;;;;15.57;11.27;;;4.90;67.30;;;;;;5051939;28;20242;-78
2022/03/10 21:20:13;;;;;;;15.33;9.83;;;4.80;67.90;;;;;;5052005;28;20247;-78
2022/03/10 21:22:39;;;;;;;13.83;9.40;;;4.70;68.30;;;;;;5051916;28;20321;-77
2022/03/10 21:25:14;;;;;;;12.57;8.03;;;4.50;68.90;;;;;;5052267;28;20216;-78
2022/03/10 21:27:39;;;;;;;14.57;9.07;;;4.50;69.50;;;;;;5052769;28;20169;-78
2022/03/10 21:30:06;;;;;;;16.53;9.47;;;4.40;70.10;;;;;;5051836;28;20594;-78
2022/03/10 21:32:48;;;;;;;12.87;8.83;;;4.20;70.70;;;;;;5052893;28;20261;-78
2022/03/10 21:35:14;;;;;;;14.20;9.73;;;4.00;71.70;;;;;;5052101;28;20287;-78
2022/03/10 21:37:39;;;;;;;15.10;9.57;;;3.90;72.20;;;;;;5051658;28;20237;-78
2022/03/10 21:40:06;;;;;;;12.60;9.40;;;3.80;72.40;;;;;;5052520;28;20174;-78
2022/03/10 21:42:32;;;;;;;14.90;8.90;;;3.70;72.90;;;;;;5051578;28;20175;-78
2022/03/10 21:45:00;;;;;;;14.23;8.93;;;3.60;73.40;;;;;;5052910;28;20252;-78
2022/03/10 21:47:30;;;;;;;21.77;9.03;;;3.60;73.60;;;;;;5051745;28;20202;-78
2022/03/10 21:49:55;;;;;;;13.40;8.97;;;3.60;73.80;;;;;;5052883;28;20578;-78
2022/03/10 21:52:36;;;;;;;16.73;10.33;;;3.60;73.50;;;;;;5052799;28;20262;-78
2022/03/10 21:55:03;;;;;;;17.10;9.47;;;3.60;73.80;;;;;;5054542;28;20201;-78
2022/03/10 21:57:49;;;;;;;15.73;9.80;;;3.50;74.40;;;;;;5055321;28;20210;-78
2022/03/10 22:00:15;;;;;;;19.90;10.80;;;3.30;75.00;;;;;;5056868;28;20158;-78
2022/03/10 22:02:41;;;;;;;17.10;10.50;;;3.20;75.70;;;;;;5055529;28;20189;-78
2022/03/10 22:05:07;;;;;;;17.00;9.87;;;3.20;75.80;;;;;;5055192;28;20194;-78
2022/03/10 22:07:44;;;;;;;17.00;10.77;;;3.00;76.70;;;;;;5056870;28;20178;-78
2022/03/10 22:10:10;;;;;;;16.83;10.37;;;3.00;77.60;;;;;;5054993;28;20676;-78
2022/03/10 22:12:47;;;;;;;17.47;11.30;;;2.90;77.00;;;;;;5055889;28;20185;-78
2022/03/10 22:15:13;;;;;;;18.70;10.57;;;2.70;78.00;;;;;;5055031;28;20209;-78
2022/03/10 22:17:53;;;;;;;16.43;11.17;;;2.70;78.30;;;;;;5055010;28;20580;-78
2022/03/10 22:20:19;;;;;;;21.03;11.47;;;2.60;78.60;;;;;;5056565;28;20162;-79
2022/03/10 22:22:45;;;;;;;21.03;11.80;;;2.60;78.20;;;;;;5055800;28;20171;-78
2022/03/10 22:26:03;;;;;;;17.10;11.47;;;2.30;78.90;;;;;;5054811;28;20217;-78
2022/03/10 22:28:29;;;;;;;17.93;10.53;;;2.40;79.10;;;;;;5055627;28;20510;-78
2022/03/10 22:30:55;;;;;;;18.67;11.07;;;2.50;79.60;;;;;;5056020;28;20185;-78
2022/03/10 22:33:23;;;;;;;19.47;11.50;;;2.60;79.70;;;;;;5054646;28;20198;-78
2022/03/10 22:35:49;;;;;;;18.77;11.30;;;2.60;79.70;;;;;;5056130;28;20178;-78
2022/03/10 22:38:15;;;;;;;20.83;11.97;;;2.60;80.00;;;;;;5054883;28;20206;-78
2022/03/10 22:40:41;;;;;;;22.57;11.37;;;2.70;80.00;;;;;;5055812;28;20168;-78
2022/03/10 22:43:06;;;;;;;20.23;11.57;;;2.60;80.20;;;;;;5054496;28;20184;-78
2022/03/10 22:45:37;;;;;;;19.77;12.13;;;2.50;80.20;;;;;;5054502;28;20174;-78
2022/03/10 22:48:03;;;;;;;25.17;12.80;;;2.30;80.40;;;;;;5055791;28;20166;-78
2022/03/10 22:56:25;;;;;;;19.20;11.90;;;2.30;81.20;;;;;;5056136;28;20201;-78
2022/03/10 22:58:51;;;;;;;20.30;12.17;;;2.20;82.00;;;;;;5055064;28;20198;-78
2022/03/10 23:01:16;;;;;;;20.70;12.83;;;2.30;82.70;;;;;;5054143;28;20264;-78
2022/03/10 23:03:42;;;;;;;21.73;12.67;;;2.30;81.80;;;;;;5054461;28;20190;-78
2022/03/10 23:08:52;;;;;;;26.27;13.83;;;2.20;82.20;;;;;;5055665;28;20204;-78
2022/03/10 23:11:18;;;;;;;26.53;14.93;;;2.10;83.80;;;;;;5054218;28;20182;-78
2022/03/10 23:13:43;;;;;;;28.27;15.10;;;2.00;83.50;;;;;;5054998;28;20202;-78
2022/03/10 23:16:09;;;;;;;29.80;14.67;;;2.10;83.90;;;;;;5055166;28;20174;-78
2022/03/10 23:18:35;;;;;;;22.87;13.60;;;2.10;83.90;;;;;;5054138;28;20212;-78
2022/03/10 23:21:01;;;;;;;23.97;13.97;;;2.10;83.70;;;;;;5055365;28;20170;-78
2022/03/10 23:26:48;;;;;;;20.97;12.77;;;2.10;83.90;;;;;;5055252;28;20157;-78
2022/03/10 23:29:14;;;;;;;23.33;12.90;;;2.10;84.50;;;;;;5055150;28;20269;-78
2022/03/10 23:31:39;;;;;;;24.27;13.63;;;2.10;84.70;;;;;;5054501;28;20185;-78
2022/03/10 23:34:05;;;;;;;23.40;12.60;;;2.00;85.00;;;;;;5053915;28;20195;-78
2022/03/10 23:40:41;;;;;;;22.07;13.40;;;1.80;85.80;;;;;;5054663;28;20304;-78
2022/03/10 23:43:07;;;;;;;24.83;13.17;;;1.90;86.20;;;;;;5054168;28;20185;-78
2022/03/10 23:45:33;;;;;;;23.13;13.73;;;1.90;86.40;;;;;;5053414;28;20174;-78
2022/03/10 23:47:58;;;;;;;22.73;14.20;;;1.90;85.20;;;;;;5053603;28;20221;-78
2022/03/10 23:51:06;;;;;;;24.30;14.63;;;2.00;85.10;;;;;;5054351;28;20178;-78
2022/03/10 23:53:32;;;;;;;24.17;14.87;;;1.90;84.90;;;;;;5053140;28;20252;-78
2022/03/10 23:55:58;;;;;;;20.13;12.90;;;1.80;86.10;;;;;;5053183;28;20186;-78
2022/03/10 23:58:23;;;;;;;25.23;14.73;;;1.80;84.80;;;;;;5054273;28;20202;-78
